Terminal Aerodrome Forecast
Issued by NWS

Home | Current Version | Previous Version | Graphics & Text | Print | Product List | Glossary On
Versions: 1 2 3 4 5 6 7 8 9 10 11 12 13 14 15 16 17 18 19 20
745
FTUS41 KCLE 261445 AAA
TAFFDY
TAF AMD
KFDY 261445Z 2615/2712 26012KT 6SM -RA BR SCT009 BKN015 OVC025
      TEMPO 2617/2618 SCT015 SCT025 OVC080
     FM261800 27012G20KT P6SM SCT020 OVC080
     FM262200 27010KT P6SM SCT080=

USA.gov is the U.S. government's official web portal to all federal, state and local government web resources and services.